createdAt,value
2023-11-14T00:01:39.600Z,27.02
2023-11-14T00:04:41.934Z,26.60
2023-11-14T00:07:44.902Z,26.20
2023-11-14T00:10:48.120Z,31.65
2023-11-14T00:13:50.964Z,24.38
2023-11-14T00:16:53.585Z,32.50
2023-11-14T00:19:56.051Z,25.90
2023-11-14T00:22:58.552Z,25.97
2023-11-14T00:26:00.839Z,26.83
2023-11-14T00:29:03.136Z,23.83
2023-11-14T00:32:05.817Z,27.08
2023-11-14T00:35:08.412Z,26.27
2023-11-14T00:38:10.826Z,32.17
2023-11-14T00:41:13.254Z,26.98
2023-11-14T00:44:15.689Z,29.93
2023-11-14T00:47:18.035Z,27.48
2023-11-14T00:50:20.273Z,28.05
2023-11-14T00:53:22.688Z,26.13
2023-11-14T00:56:24.868Z,29.25
2023-11-14T00:59:27.134Z,27.90
2023-11-14T01:02:29.371Z,28.35
2023-11-14T01:05:32.124Z,21.92
2023-11-14T01:08:34.932Z,24.92
2023-11-14T01:11:37.544Z,23.80
2023-11-14T01:14:40.893Z,32.10
2023-11-14T01:20:45.365Z,21.33
2023-11-14T01:23:47.799Z,21.30
2023-11-14T01:26:50.047Z,24.90
2023-11-14T01:29:52.957Z,28.30
2023-11-14T01:32:55.144Z,26.38
2023-11-14T01:35:57.444Z,25.75
2023-11-14T01:38:59.843Z,27.65
2023-11-14T01:42:02.904Z,32.30
2023-11-14T01:45:05.474Z,25.52
2023-11-14T01:48:07.776Z,27.83
2023-11-14T01:51:09.921Z,27.85
2023-11-14T01:54:12.534Z,26.52
2023-11-14T01:57:15.380Z,25.63
2023-11-14T02:00:18.043Z,21.77
2023-11-14T02:03:20.450Z,29.07
2023-11-14T02:06:22.880Z,23.60
2023-11-14T02:09:25.627Z,38.17
2023-11-14T02:12:28.092Z,31.45
2023-11-14T02:15:30.370Z,18.77
2023-11-14T02:18:32.698Z,24.00
2023-11-14T02:21:34.863Z,32.58
2023-11-14T02:24:37.725Z,29.67
2023-11-14T02:27:40.328Z,23.88
2023-11-14T02:30:42.716Z,27.27
2023-11-14T02:33:44.957Z,26.20
2023-11-14T02:36:48.376Z,26.85
2023-11-14T02:39:50.657Z,30.70
2023-11-14T02:42:54.368Z,22.58
2023-11-14T02:45:56.500Z,24.33
2023-11-14T02:48:59.419Z,31.50
2023-11-14T02:52:02.319Z,19.58
2023-11-14T02:55:05.003Z,31.10
2023-11-14T02:58:08.271Z,22.52
2023-11-14T03:01:10.571Z,24.67
2023-11-14T03:04:12.783Z,22.58
2023-11-14T03:07:15.417Z,25.17
2023-11-14T03:10:17.871Z,17.50
2023-11-14T03:13:20.132Z,29.23
2023-11-14T03:16:22.735Z,27.98
2023-11-14T03:19:25.102Z,24.95
2023-11-14T03:22:28.729Z,25.35
2023-11-14T03:25:31.272Z,22.77
2023-11-14T03:28:33.499Z,26.35
2023-11-14T03:31:35.796Z,33.33
2023-11-14T03:34:38.156Z,23.05
2023-11-14T03:37:40.484Z,29.40
2023-11-14T03:40:42.665Z,28.38
2023-11-14T03:43:45.642Z,22.95
2023-11-14T03:46:47.871Z,21.55
2023-11-14T03:49:50.232Z,31.52
2023-11-14T03:52:52.489Z,22.95
2023-11-14T03:55:54.646Z,24.95
2023-11-14T03:58:56.987Z,26.73
2023-11-14T04:01:59.265Z,27.10
2023-11-14T04:05:01.646Z,28.40
2023-11-14T04:08:04.405Z,27.00
2023-11-14T04:11:09.552Z,21.55
2023-11-14T04:14:11.847Z,22.48
2023-11-14T04:17:14.077Z,26.77
2023-11-14T04:20:16.393Z,27.25
2023-11-14T04:23:18.759Z,24.90
2023-11-14T04:26:21.426Z,21.60
2023-11-14T04:29:23.596Z,23.30
2023-11-14T04:32:26.100Z,26.67
2023-11-14T04:35:28.487Z,26.90
2023-11-14T04:38:30.755Z,30.85
2023-11-14T04:41:33.009Z,25.98
2023-11-14T04:44:35.337Z,18.42
2023-11-14T04:47:37.707Z,23.52
2023-11-14T04:50:39.985Z,20.67
2023-11-14T04:53:42.138Z,27.33
2023-11-14T04:56:44.382Z,29.58
2023-11-14T04:59:46.842Z,20.02
2023-11-14T05:02:49.116Z,25.23
2023-11-14T05:05:51.477Z,24.85
2023-11-14T05:08:53.922Z,27.23
2023-11-14T05:11:56.970Z,25.60
2023-11-14T05:14:59.260Z,23.88
2023-11-14T05:18:01.649Z,26.60
2023-11-14T05:21:03.974Z,17.73
2023-11-14T05:24:08.222Z,21.50
2023-11-14T05:27:10.464Z,23.35
2023-11-14T05:30:13.492Z,26.67
2023-11-14T05:33:15.717Z,25.35
2023-11-14T05:36:17.929Z,22.77
2023-11-14T05:39:21.224Z,25.73
2023-11-14T05:45:25.537Z,18.83
2023-11-14T05:48:29.675Z,19.70
2023-11-14T05:51:32.136Z,19.27
2023-11-14T05:54:37.534Z,17.87
2023-11-14T05:57:39.957Z,22.00
2023-11-14T06:00:42.179Z,25.90
2023-11-14T06:03:44.475Z,20.55
2023-11-14T06:06:46.747Z,23.60
2023-11-14T06:09:49.412Z,20.13
2023-11-14T06:12:52.706Z,20.55
2023-11-14T06:18:57.368Z,19.05
2023-11-14T06:21:59.623Z,29.58
2023-11-14T06:25:04.716Z,28.83
2023-11-14T06:28:06.906Z,22.63
2023-11-14T06:31:09.114Z,26.38
2023-11-14T06:34:13.438Z,29.08
2023-11-14T06:37:17.712Z,20.95
2023-11-14T06:40:20.039Z,17.48
2023-11-14T06:43:22.201Z,16.90
2023-11-14T06:46:25.013Z,21.25
2023-11-14T06:49:27.301Z,29.02
2023-11-14T06:52:29.558Z,18.92
2023-11-14T06:55:31.770Z,23.23
2023-11-14T06:58:35.325Z,23.60
2023-11-14T07:01:38.008Z,28.60
2023-11-14T07:04:40.328Z,24.63
2023-11-14T07:07:45.859Z,25.00
2023-11-14T07:10:48.110Z,21.55
2023-11-14T07:13:50.858Z,18.40
2023-11-14T07:16:54.756Z,29.20
2023-11-14T07:19:58.640Z,24.70
2023-11-14T07:23:00.940Z,21.25
2023-11-14T07:26:03.218Z,26.20
2023-11-14T07:29:05.517Z,20.77
2023-11-14T07:32:09.321Z,24.98
2023-11-14T07:35:12.170Z,15.75
2023-11-14T07:38:14.693Z,21.67
2023-11-14T07:41:17.027Z,16.33
2023-11-14T07:44:19.533Z,25.48
2023-11-14T07:47:22.081Z,23.73
2023-11-14T07:50:24.649Z,30.05
2023-11-14T07:53:27.030Z,21.60
2023-11-14T07:56:30.065Z,23.75
2023-11-14T07:59:32.422Z,21.27
2023-11-14T08:02:34.752Z,23.13
2023-11-14T08:05:41.500Z,21.70
2023-11-14T08:08:45.704Z,17.90
2023-11-14T08:11:48.714Z,25.20
2023-11-14T08:14:52.041Z,25.73
2023-11-14T08:17:55.569Z,23.95
2023-11-14T08:20:57.950Z,20.73
2023-11-14T08:24:00.120Z,27.40
2023-11-14T08:27:02.565Z,21.77
2023-11-14T08:30:11.314Z,23.33
2023-11-14T08:33:13.636Z,22.65
2023-11-14T08:36:16.124Z,9.15
2023-11-14T08:39:19.680Z,18.03
2023-11-14T08:42:21.949Z,20.40
2023-11-14T08:45:25.725Z,18.35
2023-11-14T08:48:28.480Z,25.27
2023-11-14T08:51:31.558Z,24.30
2023-11-14T08:54:34.117Z,19.50
2023-11-14T08:57:36.743Z,12.57
2023-11-14T09:00:39.066Z,17.90
2023-11-14T09:03:42.894Z,23.48
2023-11-14T09:06:45.103Z,19.08
2023-11-14T09:09:48.334Z,26.80
2023-11-14T09:12:50.575Z,20.65
2023-11-14T09:15:52.720Z,25.40
2023-11-14T09:18:55.877Z,22.77
2023-11-14T09:21:59.127Z,22.95
2023-11-14T09:25:01.381Z,20.95
2023-11-14T09:28:03.616Z,22.33
2023-11-14T09:31:06.819Z,24.23
2023-11-14T09:34:10.308Z,21.48
2023-11-14T09:37:12.560Z,27.23
2023-11-14T09:40:18.467Z,24.02
2023-11-14T09:43:23.643Z,26.20
2023-11-14T09:46:26.114Z,17.17
2023-11-14T09:49:29.762Z,23.58
2023-11-14T09:52:33.346Z,23.15
2023-11-14T09:55:35.840Z,26.60
2023-11-14T09:58:39.097Z,26.07
2023-11-14T10:01:42.087Z,19.55
2023-11-14T10:04:44.408Z,24.33
2023-11-14T10:07:47.638Z,21.42
2023-11-14T10:11:06.031Z,23.85
2023-11-14T10:14:08.754Z,22.83
2023-11-14T10:17:14.219Z,19.30
2023-11-14T10:20:21.174Z,29.23
2023-11-14T10:23:40.127Z,18.58
2023-11-14T10:26:53.526Z,19.80
2023-11-14T10:29:56.005Z,27.70
2023-11-14T10:32:58.389Z,21.03
2023-11-14T10:36:09.066Z,17.98
2023-11-14T10:39:11.358Z,32.05
2023-11-14T10:42:13.752Z,21.00
2023-11-14T10:45:16.039Z,18.05
2023-11-14T10:48:22.001Z,23.38
2023-11-14T10:51:24.435Z,22.52
2023-11-14T10:54:29.106Z,18.60
2023-11-14T10:57:31.836Z,25.48
2023-11-14T11:00:35.716Z,23.77
2023-11-14T11:03:38.769Z,25.83
2023-11-14T11:06:42.020Z,26.05
2023-11-14T11:09:44.203Z,22.55
2023-11-14T11:12:47.557Z,21.58
2023-11-14T11:18:52.049Z,21.73
2023-11-14T11:22:01.755Z,19.73
2023-11-14T11:25:22.730Z,22.95
2023-11-14T11:28:33.486Z,22.98
2023-11-14T11:31:37.772Z,17.58
2023-11-14T11:34:39.932Z,19.65
2023-11-14T11:37:49.224Z,23.55
2023-11-14T11:41:10.293Z,23.30
2023-11-14T11:44:14.923Z,25.58
2023-11-14T11:47:34.430Z,25.70
2023-11-14T11:50:36.807Z,22.58
2023-11-14T11:53:43.897Z,23.95
2023-11-14T11:56:46.864Z,18.30
2023-11-14T11:59:49.191Z,16.63
2023-11-14T12:02:52.635Z,19.60
2023-11-14T12:05:58.139Z,23.08
2023-11-14T12:09:01.413Z,20.55
2023-11-14T12:12:03.618Z,18.63
2023-11-14T12:15:06.905Z,19.98
2023-11-14T12:18:09.091Z,24.80
2023-11-14T12:21:11.451Z,17.88
2023-11-14T12:24:13.781Z,23.05
2023-11-14T12:27:16.033Z,20.27
2023-11-14T12:30:19.382Z,19.80
2023-11-14T12:33:21.757Z,15.75
2023-11-14T12:36:28.056Z,24.80
2023-11-14T12:39:30.197Z,20.50
2023-11-14T12:42:33.675Z,21.38
2023-11-14T12:45:46.017Z,21.20
2023-11-14T12:49:20.658Z,18.13
2023-11-14T12:52:29.644Z,19.67
2023-11-14T12:55:32.063Z,25.60
2023-11-14T12:58:34.303Z,23.57
2023-11-14T13:01:36.852Z,22.13
2023-11-14T13:04:39.284Z,23.13
2023-11-14T13:07:42.394Z,22.08
2023-11-14T13:10:45.285Z,26.13
2023-11-14T13:13:47.587Z,15.43
2023-11-14T13:16:49.952Z,18.27
2023-11-14T13:19:52.441Z,21.23
2023-11-14T13:22:55.331Z,16.83
2023-11-14T13:25:57.585Z,21.75
2023-11-14T13:28:59.830Z,18.65
2023-11-14T13:32:02.664Z,18.02
2023-11-14T13:35:07.606Z,15.52
2023-11-14T13:38:10.009Z,24.88
2023-11-14T13:41:16.480Z,17.23
2023-11-14T13:44:19.584Z,20.73
2023-11-14T13:47:22.343Z,22.77
2023-11-14T13:50:25.281Z,21.67
2023-11-14T13:53:31.762Z,19.88
2023-11-14T13:56:35.153Z,20.13
2023-11-14T13:59:38.772Z,13.00
2023-11-14T14:02:43.015Z,13.07
2023-11-14T14:05:45.539Z,12.57
2023-11-14T14:08:48.445Z,12.48
2023-11-14T14:11:51.033Z,15.98
2023-11-14T14:14:53.332Z,15.57
2023-11-14T14:17:57.205Z,13.52
2023-11-14T14:21:04.056Z,10.68
2023-11-14T14:24:06.552Z,10.80
2023-11-14T14:27:08.954Z,11.17
2023-11-14T14:30:15.771Z,11.33
2023-11-14T14:33:19.854Z,9.75
2023-11-14T14:36:22.980Z,9.35
2023-11-14T14:39:25.814Z,9.55
2023-11-14T14:42:28.044Z,8.80
2023-11-14T14:45:30.276Z,9.15
2023-11-14T14:48:36.375Z,11.88
2023-11-14T14:51:38.708Z,8.07
2023-11-14T14:54:40.850Z,8.43
2023-11-14T14:57:43.058Z,9.57
2023-11-14T15:00:45.367Z,8.95
2023-11-14T15:03:47.646Z,6.35
2023-11-14T15:06:50.632Z,9.25
2023-11-14T15:09:53.611Z,8.88
2023-11-14T15:12:55.862Z,6.32
2023-11-14T15:15:59.969Z,6.78
2023-11-14T15:19:04.732Z,9.65
2023-11-14T15:25:10.813Z,8.10
2023-11-14T15:28:13.100Z,6.95
2023-11-14T15:31:15.521Z,3.30
2023-11-14T15:34:18.181Z,3.63
2023-11-14T15:37:20.411Z,9.68
2023-11-14T15:40:22.748Z,4.72
2023-11-14T15:43:25.671Z,7.72
2023-11-14T15:46:27.994Z,3.65
2023-11-14T15:49:30.931Z,3.42
2023-11-14T15:52:33.750Z,5.18
2023-11-14T15:55:36.083Z,4.40
2023-11-14T15:58:38.959Z,3.97
2023-11-14T16:01:41.677Z,4.78
2023-11-14T16:04:43.962Z,2.95
2023-11-14T16:07:46.946Z,5.80
2023-11-14T16:10:49.241Z,4.30
2023-11-14T16:13:51.397Z,5.00
2023-11-14T16:16:53.978Z,3.58
2023-11-14T16:19:56.348Z,6.57
2023-11-14T16:22:58.543Z,2.97
2023-11-14T16:26:00.832Z,3.30
2023-11-14T16:29:03.811Z,4.28
2023-11-14T16:32:08.828Z,4.20
2023-11-14T16:35:11.844Z,2.58
2023-11-14T16:38:14.232Z,3.47
2023-11-14T16:41:16.573Z,3.45
2023-11-14T16:44:18.956Z,3.88
2023-11-14T16:47:21.275Z,2.60
2023-11-14T16:50:23.633Z,4.88
2023-11-14T16:53:26.438Z,2.72
2023-11-14T16:56:28.921Z,4.68
2023-11-14T16:59:31.383Z,4.10
2023-11-14T17:02:33.658Z,3.13
2023-11-14T17:05:38.021Z,2.88
2023-11-14T17:08:40.676Z,3.55
2023-11-14T17:11:43.025Z,4.57
2023-11-14T17:14:45.358Z,3.60
2023-11-14T17:17:48.242Z,2.47
2023-11-14T17:20:52.142Z,1.55
2023-11-14T17:23:54.517Z,2.63
2023-11-14T17:26:58.713Z,2.47
2023-11-14T17:30:00.913Z,2.88
2023-11-14T17:33:03.395Z,2.72
2023-11-14T17:36:06.587Z,4.37
2023-11-14T17:39:11.583Z,2.78
2023-11-14T17:42:13.845Z,4.20
2023-11-14T17:45:16.573Z,7.43
2023-11-14T17:48:20.037Z,5.47
2023-11-14T17:51:30.431Z,4.45
2023-11-14T17:54:37.849Z,5.30
2023-11-14T17:57:40.888Z,1.60
2023-11-14T18:00:43.419Z,3.08
2023-11-14T18:03:45.786Z,1.77
2023-11-14T18:06:49.200Z,4.00
2023-11-14T18:09:52.225Z,2.78
2023-11-14T18:12:54.536Z,3.35
2023-11-14T18:15:56.693Z,2.22
2023-11-14T18:18:59.315Z,1.73
2023-11-14T18:22:01.514Z,2.85
2023-11-14T18:25:05.046Z,1.80
2023-11-14T18:28:07.347Z,0.98
2023-11-14T18:31:09.744Z,1.75
2023-11-14T18:34:12.109Z,2.43
2023-11-14T18:37:14.432Z,1.73
2023-11-14T18:40:16.710Z,3.83
2023-11-14T18:43:18.935Z,2.03
2023-11-14T18:46:21.876Z,1.40
2023-11-14T18:49:24.665Z,2.13
2023-11-14T18:52:27.220Z,2.08
2023-11-14T18:55:29.637Z,2.58
2023-11-14T18:58:32.122Z,2.05
2023-11-14T19:01:35.339Z,2.37
2023-11-14T19:04:38.189Z,3.08
2023-11-14T19:07:41.054Z,4.15
2023-11-14T19:10:43.438Z,4.70
2023-11-14T19:13:56.022Z,5.28
2023-11-14T19:17:05.768Z,2.53
2023-11-14T19:20:11.610Z,4.40
2023-11-14T19:23:41.239Z,3.97
2023-11-14T19:27:05.499Z,2.60
2023-11-14T19:30:08.464Z,5.38
2023-11-14T19:33:11.726Z,9.15
2023-11-14T19:36:14.165Z,9.88
2023-11-14T19:39:17.747Z,3.88
2023-11-14T19:42:21.619Z,1.60
2023-11-14T19:45:24.201Z,5.22
2023-11-14T19:48:27.157Z,2.63
2023-11-14T19:51:32.862Z,3.85
2023-11-14T19:54:36.071Z,3.65
2023-11-14T19:57:40.701Z,3.17
2023-11-14T20:00:43.940Z,5.53
2023-11-14T20:03:46.683Z,3.80
2023-11-14T20:06:49.034Z,2.95
2023-11-14T20:09:53.062Z,2.00
2023-11-14T20:12:55.585Z,3.25
2023-11-14T20:15:58.222Z,4.27
2023-11-14T20:19:01.136Z,4.75
2023-11-14T20:22:03.987Z,1.77
2023-11-14T20:25:06.336Z,4.30
2023-11-14T20:28:08.989Z,5.50
2023-11-14T20:31:11.336Z,4.43
2023-11-14T20:34:14.009Z,4.32
2023-11-14T20:37:16.483Z,3.75
2023-11-14T20:40:18.856Z,5.23
2023-11-14T20:43:21.152Z,4.72
2023-11-14T20:46:24.841Z,9.70
2023-11-14T20:49:27.266Z,4.97
2023-11-14T20:52:29.613Z,14.45
2023-11-14T20:55:31.936Z,6.93
2023-11-14T20:58:34.162Z,9.20
2023-11-14T21:01:37.890Z,5.03
2023-11-14T21:04:40.146Z,6.38
2023-11-14T21:07:43.127Z,6.13
2023-11-14T21:10:45.917Z,8.85
2023-11-14T21:13:48.203Z,6.75
2023-11-14T21:16:50.582Z,10.68
2023-11-14T21:19:52.735Z,7.75
2023-11-14T21:22:55.079Z,7.40
2023-11-14T21:25:57.360Z,8.02
2023-11-14T21:28:59.784Z,6.38
2023-11-14T21:32:02.201Z,6.97
2023-11-14T21:35:04.579Z,10.87
2023-11-14T21:38:07.604Z,8.77
2023-11-14T21:41:09.769Z,8.90
2023-11-14T21:44:12.823Z,6.57
2023-11-14T21:47:15.078Z,5.35
2023-11-14T21:50:17.789Z,6.57
2023-11-14T21:53:20.074Z,7.82
2023-11-14T21:56:22.277Z,6.20
2023-11-14T21:59:24.535Z,7.72
2023-11-14T22:02:27.874Z,7.88
2023-11-14T22:08:32.594Z,10.65
2023-11-14T22:11:34.956Z,5.50
2023-11-14T22:14:37.334Z,5.78
2023-11-14T22:17:40.538Z,6.47
2023-11-14T22:20:43.627Z,10.18
2023-11-14T22:23:47.525Z,6.28
2023-11-14T22:26:49.953Z,8.65
2023-11-14T22:29:59.163Z,10.47
2023-11-14T22:33:01.648Z,5.38
2023-11-14T22:36:06.111Z,10.27
2023-11-14T22:39:09.106Z,12.73
2023-11-14T22:42:11.417Z,8.85
2023-11-14T22:45:13.807Z,11.32
2023-11-14T22:48:17.008Z,8.97
2023-11-14T22:51:19.339Z,10.35
2023-11-14T22:54:21.600Z,8.38
2023-11-14T22:57:24.734Z,10.32
2023-11-14T23:00:45.645Z,13.48
2023-11-14T23:03:49.172Z,9.32
2023-11-14T23:06:51.512Z,11.50
2023-11-14T23:09:54.052Z,13.15
2023-11-14T23:13:00.588Z,10.40
2023-11-14T23:16:02.997Z,10.40
2023-11-14T23:19:05.691Z,9.98
2023-11-14T23:22:07.820Z,13.10
2023-11-14T23:25:10.770Z,9.68
2023-11-14T23:28:14.052Z,9.70
2023-11-14T23:31:16.397Z,14.35
2023-11-14T23:34:18.653Z,9.48
2023-11-14T23:37:20.839Z,12.75
2023-11-14T23:40:24.931Z,11.73
2023-11-14T23:43:29.146Z,10.82
2023-11-14T23:46:31.518Z,10.02
2023-11-14T23:49:33.865Z,12.00
2023-11-14T23:52:36.209Z,9.52
2023-11-14T23:55:38.386Z,13.48
2023-11-14T23:58:41.108Z,9.68
